Bay Hills, New York
Current Conditions -  °F | °C
As of 3:53 AM on Wednesday 28 Jan 2015 (Local Time) from KFRG Reporting Station
Overcast Overcast  
Wind Chill:   Ceiling: 5000
Heat Index: 17°   Visibility: 10mi
Dew Point:   Wind: 6mph
Humidity: 56%   Direction: 300°WNW
Pressure: 29.89"   Gusts: NA
Location:  40.8966°N, 73.4362°W
Report Text: KFRG 280853Z AUTO 30005KT 10SM OVC050 M08/M16 A2989 RMK AO2 SLP123 T10831156 51018 $
Loading
Personal Weather Stations






























Interactive Weather Map New forecast layout! Learn more

10-Day Weather Forecast

Advertisements
Track Severe Weather on mobile